Time;durP1;ratioP1;P1;durP2;ratioP2;P2;SDS_P1;SDS_P2;PMS_P1;PMS_P2;Temp;Humidity;BMP_temperature;BMP_pressure;BME280_temperature;BME280_humidity;BME280_pressure;Samples;Min_cycle;Max_cycle;Signal;HPM_P1;HPM_P2
2022/10/26 00:01:10;;;;;;;10.13;4.13;;;12.40;99.90;;;11.47;100.00;97194.06;5034952;28;20049;-73
2022/10/26 00:03:39;;;;;;;13.57;4.43;;;12.30;99.90;;;11.47;100.00;97190.59;5033018;28;20071;-73
2022/10/26 00:06:07;;;;;;;10.15;3.65;;;12.30;99.90;;;11.60;100.00;97178.63;5040564;28;20049;-73
2022/10/26 00:08:34;;;;;;;9.18;3.40;;;12.30;99.90;;;11.72;100.00;97166.75;5035254;28;20068;-74
2022/10/26 00:11:02;;;;;;;9.27;3.40;;;12.40;99.90;;;11.65;100.00;97170.59;5036928;28;20491;-73
2022/10/26 00:13:29;;;;;;;7.63;3.20;;;12.40;99.90;;;11.69;100.00;97170.34;5037488;28;20053;-74
2022/10/26 00:15:56;;;;;;;7.60;3.08;;;12.40;99.90;;;11.80;100.00;97167.19;5032812;28;20585;-73
2022/10/26 00:18:23;;;;;;;6.38;2.65;;;12.40;99.90;;;11.86;100.00;97168.59;5040203;28;20063;-73
2022/10/26 00:20:50;;;;;;;12.75;3.28;;;12.40;99.90;;;11.92;100.00;97165.69;5034133;28;20050;-73
2022/10/26 00:23:17;;;;;;;8.65;3.50;;;12.40;99.90;;;11.87;100.00;97170.28;5037155;28;20049;-73
2022/10/26 00:25:53;;;;;;;9.00;3.58;;;12.50;99.90;;;11.92;100.00;97163.09;5035471;28;20049;-73
2022/10/26 00:28:20;;;;;;;9.27;3.28;;;12.50;99.90;;;12.01;100.00;97159.16;5037292;28;20448;-73
2022/10/26 00:30:47;;;;;;;9.07;3.28;;;12.50;99.90;;;11.98;100.00;97154.97;5036039;28;20053;-73
2022/10/26 00:33:14;;;;;;;5.78;2.50;;;12.50;99.90;;;12.00;100.00;97162.69;5040685;28;20045;-75
2022/10/26 00:35:40;;;;;;;9.23;2.50;;;12.50;99.90;;;11.89;100.00;97155.47;5034214;28;20068;-73
2022/10/26 00:38:12;;;;;;;8.77;2.50;;;12.40;99.90;;;11.91;100.00;97157.06;5035397;28;20088;-73
2022/10/26 00:40:39;;;;;;;7.35;2.80;;;12.50;99.90;;;11.91;100.00;97159.66;5040707;28;20053;-74
2022/10/26 00:43:20;;;;;;;15.13;3.50;;;12.50;99.90;;;11.89;100.00;97158.06;5048321;28;20083;-73
2022/10/26 00:45:50;;;;;;;10.40;3.03;;;12.50;99.90;;;11.86;100.00;97153.84;5033225;28;20052;-72
2022/10/26 00:48:25;;;;;;;7.75;2.38;;;12.50;99.90;;;11.90;100.00;97154.53;5036435;28;20048;-73
2022/10/26 00:50:53;;;;;;;11.95;3.30;;;12.50;99.90;;;11.77;100.00;97150.88;5036252;28;20069;-72
2022/10/26 00:53:21;;;;;;;7.00;2.83;;;12.50;99.90;;;11.82;100.00;97144.53;5034264;28;20057;-72
2022/10/26 00:55:50;;;;;;;5.20;2.35;;;12.50;99.90;;;11.86;100.00;97148.66;5035868;28;20066;-73
2022/10/26 00:58:19;;;;;;;10.98;3.17;;;12.50;99.90;;;11.87;100.00;97152.09;5034177;28;20053;-72
2022/10/26 01:00:47;;;;;;;9.00;3.20;;;12.50;99.90;;;11.88;100.00;97144.25;5030971;28;20045;-73
2022/10/26 01:03:16;;;;;;;6.43;2.45;;;12.50;99.90;;;11.96;100.00;97143.81;5036433;28;20056;-73
2022/10/26 01:05:45;;;;;;;9.45;2.65;;;12.50;99.90;;;12.03;100.00;97139.09;5047760;28;20058;-73
2022/10/26 01:08:14;;;;;;;8.50;2.58;;;12.50;99.90;;;12.08;100.00;97135.31;5037529;28;20049;-72
2022/10/26 01:10:42;;;;;;;8.35;3.03;;;12.60;99.90;;;11.95;100.00;97142.16;5043579;28;20052;-74
2022/10/26 01:13:10;;;;;;;6.10;2.80;;;12.50;99.90;;;11.70;100.00;97145.22;5034325;28;20140;-74
2022/10/26 01:16:08;;;;;;;5.60;2.35;;;12.50;99.90;;;11.85;100.00;97140.91;5035806;28;20996;-73
2022/10/26 01:19:12;;;;;;;6.88;2.42;;;12.40;99.90;;;11.91;100.00;97151.03;5033375;28;20049;-73
2022/10/26 01:21:44;;;;;;;;;;;12.50;99.90;;;11.51;100.00;97155.72;5036889;28;20048;-73
2022/10/26 01:24:33;;;;;;;7.30;2.58;;;12.50;99.90;;;11.66;100.00;97157.53;5037558;28;19928;-72
2022/10/26 01:27:33;;;;;;;10.50;2.50;;;12.40;99.90;;;11.71;100.00;97147.72;5036235;28;20096;-73
2022/10/26 01:30:33;;;;;;;9.90;3.05;;;12.40;99.90;;;11.85;100.00;97146.97;5036899;28;20159;-73
2022/10/26 01:33:36;;;;;;;9.95;2.40;;;12.40;99.90;;;11.85;100.00;97144.34;5037679;28;20045;-73
2022/10/26 01:36:28;;;;;;;6.43;2.50;;;12.50;99.90;;;11.98;100.00;97139.38;5034151;28;20065;-73
2022/10/26 01:39:03;;;;;;;10.02;2.58;;;12.50;99.90;;;11.95;100.00;97131.75;5037011;28;20075;-73
2022/10/26 01:41:47;;;;;;;9.90;2.72;;;12.50;99.90;;;11.90;100.00;97126.75;5033606;28;20057;-73
2022/10/26 01:44:22;;;;;;;7.82;2.95;;;12.50;99.90;;;11.70;100.00;97133.03;5033463;28;20105;-74
2022/10/26 01:46:52;;;;;;;13.82;3.50;;;12.50;99.90;;;11.54;100.00;97136.53;5048087;28;20735;-74
2022/10/26 01:49:31;;;;;;;7.47;3.03;;;12.40;99.90;;;11.44;100.00;97133.59;5041079;28;20041;-73
2022/10/26 01:51:58;;;;;;;7.53;2.80;;;12.30;99.90;;;11.28;100.00;97134.41;5037880;28;20049;-73
2022/10/26 01:54:25;;;;;;;8.98;3.00;;;12.20;99.90;;;11.13;100.00;97135.22;5033016;28;20045;-72
2022/10/26 01:57:01;;;;;;;13.40;3.13;;;12.20;99.90;;;11.22;100.00;97144.25;5034337;28;20052;-74
2022/10/26 01:59:59;;;;;;;9.20;3.38;;;12.10;99.90;;;11.19;100.00;97145.28;5048561;28;20490;-73
2022/10/26 02:02:38;;;;;;;8.50;3.08;;;12.00;99.90;;;11.27;100.00;97132.72;5035250;28;20052;-73
2022/10/26 02:05:16;;;;;;;10.40;3.38;;;12.00;99.90;;;11.22;100.00;97132.13;5036330;28;20064;-73
2022/10/26 02:08:14;;;;;;;15.60;3.90;;;12.10;99.90;;;11.08;100.00;97143.25;5035632;28;20506;-73
2022/10/26 02:11:11;;;;;;;9.15;3.10;;;12.00;99.90;;;11.14;100.00;97141.25;5033881;28;20151;-74
2022/10/26 02:14:07;;;;;;;11.80;3.70;;;12.00;99.90;;;11.10;100.00;97143.97;5030516;28;20700;-74
2022/10/26 02:16:57;;;;;;;7.07;2.90;;;12.00;99.90;;;11.37;100.00;97137.44;5033426;28;20107;-73
2022/10/26 02:19:46;;;;;;;11.00;3.20;;;12.10;99.90;;;11.38;100.00;97144.31;5031963;28;20503;-74
2022/10/26 02:22:24;;;;;;;16.55;4.25;;;12.10;99.90;;;11.17;100.00;97161.84;5035049;28;20525;-73
2022/10/26 02:24:52;;;;;;;12.27;4.18;;;12.10;99.90;;;11.01;100.00;97161.81;5035649;28;20090;-73
2022/10/26 02:27:25;;;;;;;10.50;3.70;;;12.00;99.90;;;11.25;100.00;97124.19;5030963;28;20075;-74
2022/10/26 02:29:55;;;;;;;8.73;2.63;;;12.00;99.90;;;11.36;100.00;97102.81;5033735;28;20045;-73
2022/10/26 02:32:27;;;;;;;10.48;3.97;;;11.90;99.90;;;11.11;100.00;97134.47;5034809;28;20152;-73
2022/10/26 02:34:56;;;;;;;14.98;4.38;;;12.00;99.90;;;11.01;100.00;97148.81;5036596;28;20154;-72
2022/10/26 02:37:25;;;;;;;8.60;3.92;;;12.00;99.90;;;11.00;100.00;97149.75;5041527;28;20045;-73
2022/10/26 02:39:53;;;;;;;11.15;3.88;;;11.90;99.90;;;11.05;100.00;97150.34;5031493;28;20054;-73
2022/10/26 02:42:23;;;;;;;11.05;3.70;;;11.80;99.90;;;11.12;100.00;97156.06;5031496;28;20769;-73
2022/10/26 02:44:56;;;;;;;11.80;3.90;;;11.80;99.90;;;11.18;100.00;97154.00;5036828;28;20252;-74
2022/10/26 02:47:25;;;;;;;8.65;2.97;;;11.90;99.90;;;11.25;100.00;97162.31;5038830;28;20041;-73
2022/10/26 02:49:53;;;;;;;9.73;3.00;;;11.90;99.90;;;11.17;100.00;97157.50;5038051;28;20127;-72
2022/10/26 02:52:35;;;;;;;9.18;2.58;;;11.90;99.90;;;11.36;100.00;97143.53;5035110;28;20099;-73
2022/10/26 02:55:11;;;;;;;10.48;4.50;;;12.00;99.90;;;11.43;100.00;97144.91;5033810;28;20071;-73
2022/10/26 02:57:44;;;;;;;13.40;4.53;;;12.00;99.90;;;11.29;100.00;97141.28;5033580;28;20037;-73
2022/10/26 03:00:16;;;;;;;12.02;4.60;;;12.00;99.90;;;11.23;100.00;97143.38;5035268;28;20605;-73
2022/10/26 03:02:53;;;;;;;13.20;4.50;;;12.10;99.90;;;11.25;100.00;97141.53;5031736;28;20053;-73
2022/10/26 03:05:25;;;;;;;8.75;2.80;;;12.10;99.90;;;11.23;100.00;97136.41;5031685;28;20426;-73
2022/10/26 03:07:54;;;;;;;9.70;2.70;;;12.00;99.90;;;11.34;100.00;97135.00;5033127;28;20052;-73
2022/10/26 03:10:21;;;;;;;11.98;4.70;;;12.10;99.90;;;11.25;100.00;97129.38;5033734;28;20086;-73
2022/10/26 03:12:48;;;;;;;8.05;1.85;;;12.10;99.90;;;11.44;100.00;97133.59;5038471;28;20057;-73
2022/10/26 03:15:16;;;;;;;8.05;2.33;;;12.10;99.90;;;11.61;100.00;97130.06;5037308;28;20049;-75
2022/10/26 03:17:43;;;;;;;8.55;1.80;;;12.20;99.90;;;11.84;100.00;97132.28;5033531;28;20056;-74
2022/10/26 03:20:10;;;;;;;8.13;3.25;;;12.30;99.90;;;11.94;100.00;97124.84;5036659;28;20049;-73
2022/10/26 03:22:37;;;;;;;10.02;3.90;;;12.40;99.90;;;11.77;100.00;97130.09;5030764;28;20513;-73
2022/10/26 03:25:05;;;;;;;6.53;3.25;;;12.50;99.90;;;11.84;100.00;97123.66;5033646;28;20048;-74
2022/10/26 03:27:31;;;;;;;6.93;1.27;;;12.50;99.90;;;11.95;100.00;97117.88;5032994;28;20044;-74
2022/10/26 03:29:58;;;;;;;6.03;2.28;;;12.50;99.90;;;11.90;100.00;97115.53;5033384;28;20059;-74
2022/10/26 03:32:25;;;;;;;6.15;1.55;;;12.60;99.90;;;11.96;100.00;97114.38;5031607;28;20063;-74
2022/10/26 03:34:52;;;;;;;6.63;1.88;;;12.60;99.90;;;11.86;100.00;97111.38;5035274;28;20055;-73
2022/10/26 03:37:19;;;;;;;6.97;2.03;;;12.60;99.90;;;11.86;100.00;97108.78;5033166;28;20399;-73
2022/10/26 03:39:46;;;;;;;3.42;1.42;;;12.50;99.90;;;11.85;100.00;97104.50;5032008;28;20092;-73
2022/10/26 03:42:12;;;;;;;4.68;0.90;;;12.50;99.90;;;11.97;100.00;97090.03;5033269;28;20124;-74
2022/10/26 03:44:39;;;;;;;5.25;1.00;;;12.50;99.90;;;11.86;100.00;97088.84;5030217;28;20057;-75
2022/10/26 03:47:06;;;;;;;4.82;1.20;;;12.60;99.90;;;11.98;100.00;97076.94;5033548;28;20057;-73
2022/10/26 03:49:34;;;;;;;6.95;1.80;;;12.50;99.90;;;11.97;100.00;97090.03;5033332;28;20045;-74
2022/10/26 03:52:01;;;;;;;7.53;1.40;;;12.60;99.90;;;11.92;100.00;97108.47;5035984;28;20097;-74
2022/10/26 03:54:28;;;;;;;6.15;1.33;;;12.60;99.90;;;11.72;100.00;97101.75;5035185;28;20132;-74
2022/10/26 03:56:55;;;;;;;5.88;1.45;;;12.50;99.90;;;11.67;100.00;97102.00;5030782;28;20045;-73
2022/10/26 03:59:22;;;;;;;7.13;1.30;;;12.50;99.90;;;11.68;100.00;97100.25;5029548;28;20068;-74
2022/10/26 04:01:49;;;;;;;10.55;1.50;;;12.40;99.90;;;11.65;100.00;97103.84;5033839;28;20044;-74
2022/10/26 04:04:21;;;;;;;5.22;1.52;;;12.30;99.90;;;11.63;100.00;97107.44;5031959;28;20049;-74
2022/10/26 04:06:48;;;;;;;5.53;1.42;;;12.20;99.90;;;11.66;100.00;97102.09;5029212;28;20079;-74
2022/10/26 04:09:15;;;;;;;4.90;1.40;;;12.20;99.90;;;11.68;100.00;97100.25;5029592;28;20052;-75
2022/10/26 04:11:41;;;;;;;9.00;1.67;;;12.20;99.90;;;11.67;100.00;97101.16;5032672;28;20071;-73
2022/10/26 04:14:08;;;;;;;5.15;1.38;;;12.20;99.90;;;11.67;100.00;97112.38;5048704;28;20052;-73
2022/10/26 04:16:35;;;;;;;4.00;1.20;;;12.20;99.90;;;11.75;100.00;97103.38;5035649;28;20046;-74
2022/10/26 04:19:02;;;;;;;3.45;1.27;;;12.20;99.90;;;11.77;100.00;97102.34;5032131;28;20139;-74
2022/10/26 04:21:31;;;;;;;5.72;1.25;;;12.20;99.90;;;11.91;100.00;97107.66;5034934;28;20052;-74
2022/10/26 04:23:58;;;;;;;4.55;1.17;;;12.30;99.90;;;12.06;100.00;97105.94;5030398;28;20132;-73
2022/10/26 04:26:25;;;;;;;7.72;1.83;;;12.40;99.90;;;12.28;100.00;97117.75;5033632;28;20522;-75
2022/10/26 04:28:52;;;;;;;5.13;1.15;;;12.50;99.90;;;12.21;100.00;97121.63;5032436;28;20060;-73
2022/10/26 04:31:19;;;;;;;3.72;1.10;;;12.60;99.90;;;12.11;100.00;97116.09;5037794;28;20053;-73
2022/10/26 04:33:46;;;;;;;6.90;1.30;;;12.60;99.90;;;12.24;100.00;97118.84;5030986;28;20144;-76
2022/10/26 04:36:13;;;;;;;8.57;1.30;;;12.70;99.90;;;12.22;100.00;97125.91;5034468;28;20046;-74
2022/10/26 04:38:39;;;;;;;6.38;1.13;;;12.70;99.90;;;12.22;100.00;97126.72;5034018;28;20104;-73
2022/10/26 04:41:06;;;;;;;7.35;1.20;;;12.70;99.90;;;12.08;100.00;97135.31;5040284;28;20053;-74
2022/10/26 04:43:33;;;;;;;6.20;1.38;;;12.70;99.90;;;11.96;100.00;97145.56;5049005;28;20513;-74
2022/10/26 04:46:00;;;;;;;7.32;1.60;;;12.70;99.90;;;11.88;100.00;97141.63;5046023;28;20053;-75
2022/10/26 04:48:27;;;;;;;5.82;1.20;;;12.70;99.90;;;11.91;100.00;97144.06;5047877;28;20045;-74
2022/10/26 04:50:57;;;;;;;10.63;1.30;;;12.60;99.90;;;11.87;100.00;97139.09;5041801;28;20060;-74
2022/10/26 04:53:25;;;;;;;8.02;1.25;;;12.60;99.90;;;11.77;100.00;97140.50;5040594;28;20104;-73
2022/10/26 04:55:59;;;;;;;5.32;1.40;;;12.50;99.90;;;11.88;100.00;97133.84;5037303;28;20505;-74
2022/10/26 04:58:27;;;;;;;5.45;1.60;;;12.60;99.90;;;11.88;100.00;97135.56;5036517;28;20167;-73
2022/10/26 05:00:54;;;;;;;8.52;2.25;;;12.50;99.90;;;11.88;100.00;97141.63;5034648;28;20048;-73
2022/10/26 05:03:21;;;;;;;3.60;1.40;;;12.50;99.90;;;11.97;100.00;97144.63;5036502;28;20056;-73
2022/10/26 05:05:49;;;;;;;6.50;1.50;;;12.50;99.90;;;12.00;100.00;97145.31;5034571;28;20075;-74
2022/10/26 05:08:15;;;;;;;7.05;1.17;;;12.50;99.90;;;12.19;100.00;97150.34;5035396;28;20056;-72
2022/10/26 05:10:47;;;;;;;3.85;1.05;;;12.70;99.90;;;12.39;100.00;97153.59;5038120;28;20044;-73
2022/10/26 05:13:14;;;;;;;5.45;1.00;;;12.80;99.90;;;12.53;100.00;97170.09;5039536;28;20467;-73
2022/10/26 05:15:41;;;;;;;4.25;1.17;;;13.00;99.90;;;12.62;100.00;97179.16;5031896;28;20141;-72
2022/10/26 05:18:08;;;;;;;6.22;1.10;;;13.10;99.90;;;12.72;100.00;97182.88;5041309;28;20052;-72
2022/10/26 05:20:36;;;;;;;6.63;1.10;;;13.20;99.90;;;12.74;100.00;97182.81;5032946;28;20060;-72
2022/10/26 05:23:06;;;;;;;5.55;0.95;;;13.20;99.90;;;12.73;100.00;97191.56;5033859;28;20499;-73
2022/10/26 05:25:37;;;;;;;6.15;1.20;;;13.20;99.90;;;12.72;100.00;97200.28;5032698;28;20089;-72
2022/10/26 05:28:08;;;;;;;5.10;1.02;;;13.30;99.90;;;12.86;100.00;97205.53;5034409;28;20049;-72
2022/10/26 05:30:35;;;;;;;3.70;1.30;;;13.30;99.90;;;12.96;100.00;97209.28;5047798;28;20046;-73
2022/10/26 05:33:02;;;;;;;2.90;1.13;;;13.40;99.90;;;13.05;100.00;97217.50;5033112;28;20702;-74
2022/10/26 05:35:30;;;;;;;7.55;1.30;;;13.50;99.90;;;13.06;100.00;97221.78;5035601;28;20144;-73
2022/10/26 05:37:58;;;;;;;7.03;1.15;;;13.50;99.90;;;13.10;100.00;97231.94;5033830;28;20049;-73
2022/10/26 05:40:25;;;;;;;7.50;1.10;;;13.60;99.90;;;13.10;100.00;97228.50;5038070;28;20096;-73
2022/10/26 05:42:52;;;;;;;6.10;1.60;;;13.60;99.90;;;13.11;100.00;97217.13;5035362;28;20144;-73
2022/10/26 05:45:19;;;;;;;10.85;1.42;;;13.60;99.90;;;13.02;100.00;97228.09;5039998;28;20053;-73
2022/10/26 05:47:46;;;;;;;7.55;1.15;;;13.60;99.90;;;12.95;100.00;97225.00;5030721;28;20054;-72
2022/10/26 05:50:13;;;;;;;9.02;1.98;;;13.50;99.90;;;12.87;100.00;97225.44;5050545;28;20439;-73
2022/10/26 05:52:45;;;;;;;5.22;2.40;;;13.40;99.90;;;12.89;100.00;97226.22;5037332;28;20580;-72
2022/10/26 05:55:16;;;;;;;6.07;1.43;;;13.30;99.90;;;12.72;100.00;97229.75;5035773;28;20057;-72
2022/10/26 05:57:44;;;;;;;12.02;1.83;;;13.30;99.90;;;12.79;100.00;97230.25;5033316;28;20049;-73
2022/10/26 06:00:17;;;;;;;6.88;1.52;;;13.20;99.90;;;12.71;100.00;97222.06;5035088;28;20049;-73
2022/10/26 06:03:14;;;;;;;4.25;1.48;;;13.20;99.90;;;12.83;100.00;97225.72;5047130;28;20045;-72
2022/10/26 06:05:54;;;;;;;9.07;1.90;;;13.20;99.90;;;12.76;100.00;97222.63;5039902;28;20197;-73
2022/10/26 06:08:24;;;;;;;6.28;1.42;;;13.20;99.90;;;12.67;100.00;97228.34;5036613;28;20054;-73
2022/10/26 06:10:52;;;;;;;5.63;1.58;;;13.20;99.90;;;12.70;100.00;97218.63;5033072;28;20053;-74
2022/10/26 06:13:20;;;;;;;11.25;2.30;;;13.20;99.90;;;12.80;100.00;97225.91;5032629;28;20045;-73
2022/10/26 06:16:19;;;;;;;6.28;1.58;;;13.20;99.90;;;12.88;100.00;97231.50;5033693;28;20050;-73
2022/10/26 06:19:23;;;;;;;6.70;1.77;;;13.20;99.90;;;12.85;100.00;97229.91;5034288;28;20049;-73
2022/10/26 06:22:48;;;;;;;5.97;1.92;;;13.40;99.90;;;12.95;100.00;97253.66;5037330;28;20072;-73
2022/10/26 06:25:32;;;;;;;6.20;1.42;;;13.50;99.90;;;13.05;100.00;97244.41;5031122;28;20053;-72
2022/10/26 06:28:26;;;;;;;7.63;1.95;;;13.50;99.90;;;13.09;100.00;97264.16;5038887;28;20051;-73
2022/10/26 06:30:53;;;;;;;5.72;1.67;;;13.50;99.90;;;13.03;100.00;97253.22;5035375;28;20064;-73
2022/10/26 06:33:20;;;;;;;6.80;2.10;;;13.60;99.90;;;13.21;100.00;97251.34;5037194;28;20064;-73
2022/10/26 06:36:21;;;;;;;5.70;2.00;;;13.60;99.90;;;13.28;100.00;97253.50;5039077;28;20049;-72
2022/10/26 06:38:54;;;;;;;4.38;1.38;;;13.60;99.90;;;13.31;100.00;97261.13;5029584;28;20056;-73
2022/10/26 06:41:22;;;;;;;8.38;2.10;;;13.70;99.90;;;13.36;100.00;97261.72;5047228;28;20103;-73
2022/10/26 06:43:49;;;;;;;11.68;2.03;;;13.80;99.90;;;13.38;100.00;97259.03;5037979;28;20053;-72
2022/10/26 06:46:38;;;;;;;7.28;2.05;;;13.80;99.90;;;13.39;100.00;97266.75;5033773;28;20049;-72
2022/10/26 06:49:24;;;;;;;6.45;1.95;;;13.90;99.90;;;13.37;100.00;97273.81;5035161;28;20057;-73
2022/10/26 06:52:06;;;;;;;6.05;2.25;;;14.00;99.90;;;13.49;100.00;97272.25;5036991;28;20526;-73
2022/10/26 06:54:52;;;;;;;7.43;1.83;;;14.00;99.90;;;13.54;100.00;97277.19;5033961;28;20049;-72
2022/10/26 06:57:21;;;;;;;8.30;1.95;;;14.00;99.90;;;13.62;100.00;97281.97;5038616;28;20037;-72
2022/10/26 06:59:59;;;;;;;10.45;2.33;;;14.00;99.90;;;13.62;100.00;97282.81;5032574;28;20049;-72
2022/10/26 07:02:26;;;;;;;9.18;2.35;;;14.10;99.90;;;13.69;100.00;97296.34;5037484;28;20053;-73
2022/10/26 07:04:56;;;;;;;8.80;2.00;;;14.20;99.90;;;13.70;100.00;97290.16;5034583;28;20524;-72
2022/10/26 07:07:29;;;;;;;8.88;2.50;;;14.30;99.90;;;13.74;100.00;97287.28;5037546;28;20049;-73
2022/10/26 07:09:58;;;;;;;7.13;2.20;;;14.20;99.90;;;13.68;100.00;97282.44;5042344;28;20133;-72
2022/10/26 07:12:25;;;;;;;5.88;2.08;;;14.20;99.90;;;13.64;100.00;97290.53;5031590;28;20057;-72
2022/10/26 07:14:59;;;;;;;7.00;2.10;;;14.10;99.90;;;13.63;100.00;97292.31;5034799;28;20389;-73
2022/10/26 07:17:27;;;;;;;7.80;1.85;;;14.10;99.90;;;13.68;100.00;97297.25;5033412;28;20577;-74
2022/10/26 07:19:54;;;;;;;9.60;2.03;;;14.10;99.90;;;13.71;100.00;97292.69;5049126;28;20046;-73
2022/10/26 07:22:22;;;;;;;7.25;1.95;;;14.20;99.90;;;13.73;100.00;97293.44;5038463;28;20045;-73
2022/10/26 07:24:50;;;;;;;6.05;2.03;;;14.20;99.90;;;13.65;100.00;97321.75;5035510;28;20065;-73
2022/10/26 07:27:20;;;;;;;9.80;2.45;;;14.30;99.90;;;13.70;100.00;97314.47;5030115;28;20049;-73
2022/10/26 07:29:47;;;;;;;9.75;2.28;;;14.30;99.90;;;13.77;100.00;97328.81;5033330;28;20077;-73
2022/10/26 07:32:14;;;;;;;8.90;2.15;;;14.30;99.90;;;13.71;100.00;97331.81;5035139;28;20060;-72
2022/10/26 07:34:40;;;;;;;7.32;2.40;;;14.40;99.90;;;13.69;100.00;97325.03;5034968;28;20483;-74
2022/10/26 07:37:07;;;;;;;8.45;1.63;;;14.40;99.90;;;13.89;100.00;97342.94;5036388;28;20108;-73
2022/10/26 07:39:34;;;;;;;8.20;1.95;;;14.40;99.90;;;13.86;100.00;97342.25;5033802;28;20483;-73
2022/10/26 07:42:01;;;;;;;7.13;2.20;;;14.50;99.90;;;13.91;100.00;97335.84;5039988;28;20060;-73
2022/10/26 07:44:28;;;;;;;9.35;2.22;;;14.60;99.90;;;13.98;100.00;97337.16;5035221;28;20706;-73
2022/10/26 07:46:55;;;;;;;10.20;3.05;;;14.70;99.90;;;14.04;100.00;97353.38;5039152;28;20053;-73
2022/10/26 07:49:22;;;;;;;8.15;2.40;;;14.80;99.90;;;14.42;100.00;97345.81;5037899;28;20152;-73
2022/10/26 07:51:53;;;;;;;6.40;2.20;;;15.10;99.90;;;14.91;100.00;97345.38;5037978;28;20057;-73
2022/10/26 07:54:20;;;;;;;11.77;2.25;;;15.50;99.90;;;14.85;100.00;97345.78;5035279;28;20135;-73
2022/10/26 07:56:50;;;;;;;9.30;2.08;;;15.60;99.90;;;14.99;100.00;97357.97;5034848;28;20045;-74
2022/10/26 07:59:17;;;;;;;6.93;1.50;;;15.60;99.90;;;14.76;100.00;97351.59;5035848;28;20517;-73
2022/10/26 08:01:44;;;;;;;10.48;2.20;;;15.60;99.90;;;14.82;100.00;97359.88;5033848;28;20049;-75
2022/10/26 08:04:11;;;;;;;7.03;2.13;;;15.50;99.90;;;14.81;100.00;97367.81;5029018;28;20733;-73
2022/10/26 08:06:39;;;;;;;4.15;1.73;;;15.60;99.90;;;14.95;100.00;97369.56;5035737;28;20044;-73
2022/10/26 08:09:05;;;;;;;6.82;1.88;;;15.60;99.90;;;14.82;100.00;97370.34;5037947;28;20451;-74
2022/10/26 08:11:35;;;;;;;13.57;4.60;;;15.60;99.90;;;14.81;100.00;97370.44;5038429;28;20805;-73
2022/10/26 08:14:03;;;;;;;9.73;2.10;;;15.60;99.90;;;14.84;100.00;97376.28;5037477;28;20153;-74
2022/10/26 08:16:30;;;;;;;8.52;2.72;;;15.50;99.90;;;14.89;100.00;97385.59;5037772;28;20049;-72
2022/10/26 08:18:57;;;;;;;9.88;2.50;;;15.60;99.90;;;14.75;100.00;97400.38;5037367;28;20050;-73
2022/10/26 08:21:24;;;;;;;10.32;2.10;;;15.60;99.90;;;14.74;100.00;97413.56;5037492;28;20367;-73
2022/10/26 08:24:05;;;;;;;5.95;2.22;;;15.60;99.90;;;14.91;100.00;97396.81;5036797;28;20146;-74
2022/10/26 08:26:32;;;;;;;8.90;2.42;;;15.60;99.90;;;14.93;100.00;97397.56;5036600;28;20115;-72
2022/10/26 08:29:00;;;;;;;12.50;2.42;;;15.60;99.90;;;14.82;100.00;97406.06;5037621;28;20053;-73
2022/10/26 08:31:27;;;;;;;6.63;2.45;;;15.60;99.90;;;14.81;100.00;97420.91;5036844;28;20064;-73
2022/10/26 08:33:54;;;;;;;8.30;2.65;;;15.70;99.90;;;14.97;100.00;97412.09;5038560;28;20059;-73
2022/10/26 08:36:26;;;;;;;12.02;4.15;;;15.80;99.90;;;15.03;100.00;97415.19;5038770;28;20036;-73
2022/10/26 08:38:53;;;;;;;6.38;2.22;;;15.90;99.90;;;15.16;100.00;97410.00;5047113;28;20049;-72
2022/10/26 08:41:51;;;;;;;9.30;2.05;;;16.00;99.90;;;15.14;100.00;97414.47;5040762;28;20037;-73
2022/10/26 08:44:24;;;;;;;7.13;2.10;;;16.10;99.90;;;15.16;100.00;97419.63;5022808;28;20064;-74
2022/10/26 08:46:57;;;;;;;5.43;1.58;;;16.00;99.90;;;15.16;100.00;97415.22;5041807;28;20056;-73
2022/10/26 08:49:58;;;;;;;7.50;2.15;;;16.00;99.90;;;15.11;100.00;97419.91;5035609;28;20502;-73
2022/10/26 08:52:44;;;;;;;7.28;1.67;;;16.00;99.90;;;15.10;100.00;97431.31;5039225;28;20056;-73
2022/10/26 08:55:19;;;;;;;7.75;2.28;;;16.00;99.90;;;15.13;100.00;97441.56;5040517;28;20049;-73
2022/10/26 08:57:48;;;;;;;9.57;2.08;;;15.90;99.90;;;15.14;100.00;97430.16;5052248;28;20091;-73
2022/10/26 09:00:25;;;;;;;11.68;1.80;;;15.90;99.90;;;15.14;100.00;97445.84;5041001;28;20045;-74
2022/10/26 09:02:52;;;;;;;9.90;1.90;;;16.00;99.90;;;15.20;100.00;97442.03;5035854;28;20049;-74
2022/10/26 09:05:38;;;;;;;6.15;2.00;;;16.00;99.90;;;15.28;100.00;97460.69;5037434;28;20045;-73
2022/10/26 09:08:31;;;;;;;7.55;2.13;;;16.10;99.90;;;15.35;100.00;97450.66;5039295;28;20514;-73
2022/10/26 09:11:25;;;;;;;7.93;1.60;;;16.10;99.90;;;15.37;100.00;97459.25;5038671;28;20073;-74
2022/10/26 09:14:11;;;;;;;6.90;1.92;;;16.20;99.90;;;15.47;100.00;97442.88;5037735;28;20103;-74
2022/10/26 09:17:02;;;;;;;8.40;1.73;;;16.30;99.90;;;15.52;100.00;97455.66;5034395;28;20045;-74
2022/10/26 09:19:36;;;;;;;9.00;2.20;;;16.30;99.90;;;15.56;100.00;97456.31;5048136;28;20046;-73
2022/10/26 09:22:21;;;;;;;7.40;1.60;;;16.40;99.90;;;15.48;100.00;97462.84;5033061;28;20049;-73
2022/10/26 09:24:55;;;;;;;7.22;1.67;;;16.50;99.90;;;15.54;100.00;97479.09;5036952;28;20065;-73
2022/10/26 09:27:46;;;;;;;10.85;1.75;;;16.50;99.90;;;15.75;100.00;97477.72;5034034;28;20652;-73
2022/10/26 09:30:18;;;;;;;5.68;1.58;;;16.70;99.90;;;15.95;100.00;97483.47;5050045;28;20067;-73
2022/10/26 09:33:03;;;;;;;8.32;1.65;;;16.80;99.90;;;15.99;100.00;97495.41;5038122;28;20045;-74
2022/10/26 09:35:48;;;;;;;8.25;1.95;;;16.80;99.90;;;16.02;100.00;97500.44;5038776;28;20045;-73
2022/10/26 09:38:37;;;;;;;5.72;1.50;;;16.80;99.90;;;16.09;100.00;97499.09;5036412;28;20127;-73
2022/10/26 09:41:36;;;;;;;8.53;2.03;;;17.00;99.90;;;16.33;100.00;97496.63;5037563;28;20537;-73
2022/10/26 09:44:26;;;;;;;4.63;1.50;;;17.20;99.90;;;16.36;100.00;97500.81;5037670;28;20068;-73
2022/10/26 09:47:29;;;;;;;7.72;1.83;;;17.40;99.90;;;16.28;100.00;97520.50;5042190;28;20076;-73
2022/10/26 09:50:15;;;;;;;11.13;2.30;;;17.40;99.90;;;16.31;100.00;97508.97;5012234;28;20056;-73
2022/10/26 09:52:41;;;;;;;10.32;2.05;;;17.40;99.90;;;16.26;100.00;97524.13;5033355;28;20053;-74
2022/10/26 09:55:12;;;;;;;8.73;2.30;;;17.40;99.90;;;16.11;100.00;97536.47;5033276;28;20060;-75
2022/10/26 09:57:45;;;;;;;7.30;1.85;;;17.50;99.90;;;16.39;100.00;97526.78;5037727;28;20071;-75
2022/10/26 10:00:18;;;;;;;10.10;1.88;;;17.40;99.90;;;16.47;100.00;97548.09;5050558;28;20144;-74
2022/10/26 10:02:53;;;;;;;5.82;1.60;;;17.40;99.90;;;16.14;100.00;97554.59;5031803;28;20049;-73
2022/10/26 10:05:26;;;;;;;7.10;1.50;;;17.30;99.90;;;16.44;100.00;97543.88;5034957;28;20055;-73
2022/10/26 10:08:30;;;;;;;6.28;1.60;;;17.40;99.90;;;16.11;100.00;97575.75;5037821;28;20057;-74
2022/10/26 10:11:13;;;;;;;10.18;1.58;;;17.30;99.90;;;16.24;100.00;97563.53;5032702;28;20053;-73
2022/10/26 10:13:42;;;;;;;7.97;2.03;;;17.40;99.90;;;16.17;100.00;97561.41;5034958;28;20052;-73
2022/10/26 10:16:18;;;;;;;7.03;1.67;;;17.50;99.90;;;16.33;100.00;97575.22;5035637;28;20505;-73
2022/10/26 10:18:54;;;;;;;9.30;1.63;;;17.40;99.90;;;16.25;100.00;97580.09;5033539;28;20148;-74
2022/10/26 10:21:37;;;;;;;9.75;1.88;;;17.50;99.90;;;16.02;100.00;97582.44;5031495;28;20049;-74
2022/10/26 10:24:32;;;;;;;9.23;2.13;;;17.50;99.90;;;16.23;100.00;97581.97;5046026;28;20053;-74
2022/10/26 10:27:14;;;;;;;8.20;1.45;;;17.40;99.90;;;16.10;100.00;97590.63;5035826;28;20053;-73
2022/10/26 10:29:54;;;;;;;8.05;2.13;;;17.40;99.90;;;16.40;100.00;97580.84;5034068;28;20081;-73
2022/10/26 10:32:30;;;;;;;8.27;1.92;;;17.40;99.90;;;16.39;100.00;97595.72;5034790;28;20053;-76
2022/10/26 10:35:28;;;;;;;5.88;2.08;;;17.40;99.90;;;16.04;100.00;97605.91;5037506;28;20420;-73
2022/10/26 10:37:56;;;;;;;6.13;1.42;;;17.50;99.90;;;16.19;100.00;97606.66;5037036;28;20052;-74